Time;durP1;ratioP1;P1;durP2;ratioP2;P2;SDS_P1;SDS_P2;PMS_P1;PMS_P2;Temp;Humidity;BMP_temperature;BMP_pressure;BME280_temperature;BME280_humidity;BME280_pressure;Samples;Min_cycle;Max_cycle;Signal;HPM_P1;HPM_P2
2022/05/17 00:01:39;;;;;;;;;;;16.20;90.10;;;;;;5056486;28;20002;-66
2022/05/17 00:04:07;;;;;;;;;;;16.10;90.50;;;;;;4987834;28;19926;-66
2022/05/17 00:06:34;;;;;;;;;;;16.10;91.30;;;;;;4966942;28;20024;-66
2022/05/17 00:09:01;;;;;;;;;;;16.10;91.80;;;;;;5027003;28;19925;-66
2022/05/17 00:11:28;;;;;;;;;;;16.00;92.60;;;;;;5001294;28;19926;-66
2022/05/17 00:13:54;;;;;;;;;;;15.90;93.40;;;;;;4975804;28;20009;-65
2022/05/17 00:16:21;;;;;;;;;;;15.90;94.00;;;;;;4968331;28;19938;-66
2022/05/17 00:18:50;;;;;;;;;;;15.90;94.70;;;;;;4979949;28;20463;-66
2022/05/17 00:21:18;;;;;;;;;;;15.90;95.40;;;;;;5009054;28;19930;-66
2022/05/17 00:23:45;;;;;;;;;;;15.90;95.50;;;;;;5017989;28;19979;-67
2022/05/17 00:26:12;;;;;;;;;;;15.90;95.80;;;;;;4974118;28;19965;-67
2022/05/17 00:28:39;;;;;;;;;;;15.80;96.30;;;;;;5021447;28;20006;-66
2022/05/17 00:31:07;;;;;;;;;;;15.80;96.70;;;;;;4969980;28;19979;-66
2022/05/17 00:33:34;;;;;;;;;;;15.80;96.90;;;;;;4975898;28;19933;-66
2022/05/17 00:36:01;;;;;;;;;;;15.90;96.70;;;;;;4971027;28;20368;-67
2022/05/17 00:38:29;;;;;;;;;;;16.00;96.20;;;;;;4967990;28;19931;-66
2022/05/17 00:40:55;;;;;;;;;;;16.10;95.00;;;;;;4999243;28;20023;-67
2022/05/17 00:43:28;;;;;;;;;;;16.20;94.40;;;;;;4984709;28;20345;-67
2022/05/17 00:45:55;;;;;;;;;;;16.30;93.80;;;;;;5021830;28;19975;-66
2022/05/17 00:48:23;;;;;;;;;;;16.40;93.20;;;;;;4995987;28;20373;-66
2022/05/17 00:50:50;;;;;;;;;;;16.40;92.90;;;;;;4969432;28;19984;-65
2022/05/17 00:53:19;;;;;;;;;;;16.50;93.10;;;;;;4967827;28;19926;-65
2022/05/17 00:55:50;;;;;;;;;;;16.60;93.10;;;;;;4968808;28;20014;-65
2022/05/17 00:58:18;;;;;;;;;;;16.50;93.30;;;;;;4971185;28;19926;-66
2022/05/17 01:00:46;;;;;;;;;;;16.40;93.70;;;;;;4992708;28;19927;-65
2022/05/17 01:03:14;;;;;;;;;;;16.40;94.20;;;;;;4975660;28;19924;-66
2022/05/17 01:05:49;;;;;;;;;;;16.30;94.40;;;;;;4960506;28;20589;-65
2022/05/17 01:08:18;;;;;;;;;;;16.30;94.50;;;;;;5022201;28;19930;-65
2022/05/17 01:10:44;;;;;;;;;;;16.30;94.70;;;;;;4980947;28;19926;-65
2022/05/17 01:15:57;;;;;;;;;;;16.10;95.90;;;;;;4980658;28;19934;-65
2022/05/17 01:18:25;;;;;;;;;;;16.10;96.20;;;;;;4968815;28;20307;-65
2022/05/17 01:20:52;;;;;;;;;;;16.00;96.80;;;;;;4988250;28;19956;-65
2022/05/17 01:23:20;;;;;;;;;;;15.90;96.90;;;;;;4962407;28;20460;-65
2022/05/17 01:25:47;;;;;;;;;;;15.80;97.30;;;;;;4997695;28;20372;-65
2022/05/17 01:28:16;;;;;;;;;;;15.90;98.00;;;;;;4973228;28;19927;-66
2022/05/17 01:30:42;;;;;;;;;;;15.90;98.10;;;;;;4996377;28;20293;-66
2022/05/17 01:33:13;;;;;;;;;;;15.90;98.10;;;;;;4982664;28;19933;-66
2022/05/17 01:35:40;;;;;;;;;;;16.00;97.90;;;;;;4969129;28;19927;-66
2022/05/17 01:38:07;;;;;;;;;;;16.00;97.30;;;;;;5011578;28;19930;-66
2022/05/17 01:40:35;;;;;;;;;;;16.00;96.70;;;;;;4992179;28;19930;-65
2022/05/17 01:43:02;;;;;;;;;;;16.10;96.80;;;;;;4969987;28;19930;-66
2022/05/17 01:45:29;;;;;;;;;;;16.00;96.70;;;;;;4967563;28;20270;-66
2022/05/17 01:47:57;;;;;;;;;;;15.90;97.10;;;;;;5010641;28;20382;-65
2022/05/17 01:50:23;;;;;;;;;;;15.80;97.30;;;;;;5007077;28;20381;-66
2022/05/17 01:52:50;;;;;;;;;;;15.70;97.70;;;;;;5004075;28;19926;-66
2022/05/17 01:55:17;;;;;;;;;;;15.60;98.30;;;;;;4967718;28;19926;-66
2022/05/17 01:57:45;;;;;;;;;;;15.60;99.00;;;;;;5007154;28;19946;-66
2022/05/17 02:00:13;;;;;;;;;;;15.60;99.10;;;;;;5015495;28;19925;-66
2022/05/17 02:02:39;;;;;;;;;;;15.60;99.50;;;;;;4962649;28;19926;-66
2022/05/17 02:05:07;;;;;;;;;;;15.60;99.50;;;;;;4967207;28;19933;-67
2022/05/17 02:07:33;;;;;;;;;;;15.60;99.30;;;;;;4994575;28;19925;-66
2022/05/17 02:10:00;;;;;;;;;;;15.50;99.50;;;;;;4983537;28;20063;-66
2022/05/17 02:12:27;;;;;;;;;;;15.50;99.90;;;;;;4968097;28;20115;-66
2022/05/17 02:14:55;;;;;;;;;;;15.40;99.90;;;;;;4965623;28;19965;-66
2022/05/17 02:17:22;;;;;;;;;;;15.30;99.90;;;;;;4978648;28;19926;-67
2022/05/17 02:19:48;;;;;;;;;;;15.20;99.90;;;;;;4972948;28;19980;-66
2022/05/17 02:22:15;;;;;;;;;;;15.10;99.90;;;;;;4968435;28;19926;-67
2022/05/17 02:24:42;;;;;;;;;;;15.00;99.90;;;;;;4966805;28;20427;-67
2022/05/17 02:27:08;;;;;;;;;;;15.00;99.90;;;;;;4971051;28;20401;-67
2022/05/17 02:29:35;;;;;;;;;;;15.00;99.90;;;;;;4966487;28;19926;-66
2022/05/17 02:32:03;;;;;;;;;;;14.90;99.90;;;;;;4968667;28;19930;-66
2022/05/17 02:34:31;;;;;;;;;;;15.00;99.90;;;;;;4997354;28;19924;-66
2022/05/17 02:36:58;;;;;;;;;;;15.00;99.90;;;;;;5040124;28;20385;-66
2022/05/17 02:39:25;;;;;;;;;;;15.20;99.90;;;;;;4962887;28;19926;-66
2022/05/17 02:41:51;;;;;;;;;;;15.30;99.90;;;;;;5032180;28;19928;-66
2022/05/17 02:44:18;;;;;;;;;;;15.40;99.90;;;;;;4967938;28;20028;-66
2022/05/17 02:46:45;;;;;;;;;;;15.50;99.90;;;;;;5003361;28;19925;-66
2022/05/17 02:49:13;;;;;;;;;;;15.50;99.90;;;;;;4986695;28;20368;-66
2022/05/17 02:51:39;;;;;;;;;;;15.60;99.90;;;;;;5011951;28;19932;-66
2022/05/17 02:54:07;;;;;;;;;;;15.70;99.90;;;;;;4975876;28;20427;-66
2022/05/17 02:56:34;;;;;;;;;;;15.80;99.90;;;;;;4986857;28;19933;-67
2022/05/17 02:59:00;;;;;;;;;;;15.80;99.90;;;;;;5008007;28;19940;-66
2022/05/17 03:01:27;;;;;;;;;;;15.60;99.90;;;;;;5000622;28;20670;-66
2022/05/17 03:03:54;;;;;;;;;;;15.40;99.90;;;;;;4969389;28;20025;-66
2022/05/17 03:06:22;;;;;;;;;;;15.30;99.90;;;;;;5025495;28;19926;-66
2022/05/17 03:08:48;;;;;;;;;;;15.30;99.90;;;;;;4993440;28;19926;-66
2022/05/17 03:11:15;;;;;;;;;;;15.40;99.90;;;;;;4976550;28;19937;-66
2022/05/17 03:13:42;;;;;;;;;;;15.50;99.90;;;;;;4974788;28;19930;-66
2022/05/17 03:16:10;;;;;;;;;;;15.50;99.90;;;;;;5002248;28;19930;-67
2022/05/17 03:18:38;;;;;;;;;;;15.50;99.90;;;;;;4971348;28;19933;-66
2022/05/17 03:21:05;;;;;;;;;;;15.60;99.90;;;;;;4970249;28;19934;-66
2022/05/17 03:23:33;;;;;;;;;;;15.60;99.90;;;;;;4969891;28;19977;-67
2022/05/17 03:26:00;;;;;;;;;;;15.70;99.90;;;;;;4978337;28;20369;-67
2022/05/17 03:28:26;;;;;;;;;;;15.80;99.90;;;;;;4970013;28;20432;-66
2022/05/17 03:30:53;;;;;;;;;;;15.80;99.90;;;;;;4967599;28;19932;-66
2022/05/17 03:33:20;;;;;;;;;;;15.90;99.90;;;;;;4969556;28;19926;-66
2022/05/17 03:35:46;;;;;;;;;;;15.90;99.90;;;;;;4970798;28;20075;-66
2022/05/17 03:38:13;;;;;;;;;;;15.90;99.90;;;;;;4986974;28;19927;-65
2022/05/17 03:40:41;;;;;;;;;;;15.80;99.90;;;;;;4968212;28;19978;-68
2022/05/17 03:43:08;;;;;;;;;;;15.70;99.90;;;;;;4970029;28;19926;-65
2022/05/17 03:45:34;;;;;;;;;;;15.70;99.90;;;;;;4975018;28;19932;-65
2022/05/17 03:48:01;;;;;;;;;;;15.70;99.90;;;;;;5013053;28;20452;-65
2022/05/17 03:50:28;;;;;;;;;;;15.80;99.90;;;;;;4969758;28;19926;-66
2022/05/17 03:52:55;;;;;;;;;;;15.80;99.90;;;;;;4970783;28;20017;-65
2022/05/17 03:55:22;;;;;;;;;;;15.80;99.90;;;;;;4968993;28;19926;-66
2022/05/17 03:57:50;;;;;;;;;;;15.70;99.90;;;;;;4985930;28;19931;-66
2022/05/17 04:00:17;;;;;;;;;;;15.70;99.90;;;;;;4967626;28;19926;-65
2022/05/17 04:02:43;;;;;;;;;;;15.60;99.90;;;;;;5026424;28;20187;-65
2022/05/17 04:05:10;;;;;;;;;;;15.50;99.90;;;;;;4965418;28;20011;-65
2022/05/17 04:07:38;;;;;;;;;;;15.40;99.90;;;;;;5001253;28;20299;-65
2022/05/17 04:10:05;;;;;;;;;;;15.40;99.90;;;;;;4967020;28;20672;-65
2022/05/17 04:12:32;;;;;;;;;;;15.40;99.90;;;;;;4969074;28;19926;-65
2022/05/17 04:15:00;;;;;;;;;;;15.40;99.90;;;;;;4968951;28;19926;-65
2022/05/17 04:17:27;;;;;;;;;;;15.50;99.90;;;;;;5007428;28;19932;-65
2022/05/17 04:19:53;;;;;;;;;;;15.40;99.90;;;;;;4989260;28;19930;-65
2022/05/17 04:22:20;;;;;;;;;;;15.30;99.90;;;;;;5003016;28;19940;-65
2022/05/17 04:24:47;;;;;;;;;;;15.40;99.90;;;;;;4982237;28;19926;-65
2022/05/17 04:27:14;;;;;;;;;;;15.40;99.90;;;;;;4981391;28;19956;-65
2022/05/17 04:29:41;;;;;;;;;;;15.40;99.90;;;;;;4964499;28;20022;-65
2022/05/17 04:32:10;;;;;;;;;;;15.40;99.90;;;;;;4973655;28;19930;-65
2022/05/17 04:34:36;;;;;;;;;;;15.50;99.90;;;;;;4981437;28;20017;-65
2022/05/17 04:37:03;;;;;;;;;;;15.50;99.90;;;;;;4975879;28;19926;-65
2022/05/17 04:39:30;;;;;;;;;;;15.60;99.90;;;;;;4972754;28;20025;-65
2022/05/17 04:41:57;;;;;;;;;;;15.60;99.90;;;;;;4990983;28;19926;-65
2022/05/17 04:44:24;;;;;;;;;;;15.80;99.90;;;;;;4967055;28;19936;-65
2022/05/17 04:46:50;;;;;;;;;;;15.80;99.90;;;;;;4979029;28;20300;-65
2022/05/17 04:49:18;;;;;;;;;;;15.80;99.90;;;;;;4966227;28;19927;-65
2022/05/17 04:51:46;;;;;;;;;;;15.90;99.90;;;;;;4964184;28;19930;-65
2022/05/17 04:54:13;;;;;;;;;;;15.80;99.90;;;;;;4967510;28;20053;-65
2022/05/17 04:56:39;;;;;;;;;;;15.70;99.90;;;;;;4966154;28;19973;-65
2022/05/17 04:59:07;;;;;;;;;;;15.70;99.90;;;;;;4991201;28;19927;-65
2022/05/17 05:01:34;;;;;;;;;;;15.70;99.90;;;;;;4968657;28;19979;-66
2022/05/17 05:04:01;;;;;;;;;;;15.70;99.90;;;;;;4992264;28;19934;-65
2022/05/17 05:06:29;;;;;;;;;;;15.80;99.90;;;;;;4969021;28;19926;-65
2022/05/17 05:08:56;;;;;;;;;;;15.80;99.90;;;;;;4984728;28;19933;-65
2022/05/17 05:11:23;;;;;;;;;;;15.90;99.90;;;;;;4968473;28;20013;-65
2022/05/17 05:13:49;;;;;;;;;;;15.80;99.90;;;;;;4964969;28;20372;-65
2022/05/17 05:16:17;;;;;;;;;;;15.80;99.90;;;;;;4969111;28;20143;-65
2022/05/17 05:18:44;;;;;;;;;;;15.80;99.90;;;;;;4964213;28;19933;-65
2022/05/17 05:21:14;;;;;;;;;;;15.90;99.90;;;;;;4964901;28;19984;-65
2022/05/17 05:23:43;;;;;;;;;;;15.90;99.90;;;;;;4972687;28;20304;-65
2022/05/17 05:26:11;;;;;;;;;;;16.00;99.90;;;;;;4978672;28;19926;-64
2022/05/17 05:28:38;;;;;;;;;;;16.00;99.90;;;;;;4981814;28;19930;-65
2022/05/17 05:31:05;;;;;;;;;;;16.00;99.90;;;;;;4974835;28;19933;-65
2022/05/17 05:33:33;;;;;;;;;;;16.00;99.90;;;;;;5019428;28;19934;-65
2022/05/17 05:36:00;;;;;;;;;;;16.00;99.90;;;;;;5007628;28;20286;-65
2022/05/17 05:38:26;;;;;;;;;;;16.00;99.90;;;;;;4959542;28;19976;-65
2022/05/17 05:40:55;;;;;;;;;;;16.30;99.90;;;;;;4968163;28;20015;-66
2022/05/17 05:43:22;;;;;;;;;;;16.30;99.90;;;;;;4964231;28;19965;-65
2022/05/17 05:45:49;;;;;;;;;;;16.40;99.90;;;;;;4967935;28;20490;-66
2022/05/17 05:48:15;;;;;;;;;;;16.40;99.90;;;;;;4957124;28;20357;-66
2022/05/17 05:50:42;;;;;;;;;;;16.40;99.90;;;;;;4967210;28;19930;-65
2022/05/17 05:53:11;;;;;;;;;;;16.30;99.90;;;;;;4961679;28;19978;-66
2022/05/17 05:55:38;;;;;;;;;;;16.20;99.90;;;;;;4964676;28;19926;-64
2022/05/17 05:58:07;;;;;;;;;;;16.10;99.90;;;;;;4961921;28;19926;-65
2022/05/17 06:00:35;;;;;;;;;;;16.00;99.90;;;;;;4962913;28;20033;-66
2022/05/17 06:03:02;;;;;;;;;;;16.00;99.90;;;;;;4963056;28;20392;-66
2022/05/17 06:05:30;;;;;;;;;;;16.10;99.90;;;;;;4957630;28;19934;-67
2022/05/17 06:07:57;;;;;;;;;;;16.10;99.90;;;;;;4965558;28;19926;-66
2022/05/17 06:10:23;;;;;;;;;;;16.10;99.90;;;;;;4962752;28;19925;-65
2022/05/17 06:12:52;;;;;;;;;;;16.10;99.90;;;;;;4989123;28;19932;-65
2022/05/17 06:15:20;;;;;;;;;;;16.10;99.90;;;;;;4964665;28;19934;-66
2022/05/17 06:17:47;;;;;;;;;;;16.00;99.90;;;;;;4963958;28;19934;-65
2022/05/17 06:20:16;;;;;;;;;;;16.10;99.90;;;;;;4947748;28;19934;-65
2022/05/17 06:22:43;;;;;;;;;;;16.00;99.90;;;;;;4953123;28;20381;-64
2022/05/17 06:25:09;;;;;;;;;;;16.00;99.90;;;;;;4961669;28;19961;-66
2022/05/17 06:27:36;;;;;;;;;;;16.00;99.90;;;;;;4963012;28;20021;-66
2022/05/17 06:30:03;;;;;;;;;;;16.10;99.90;;;;;;4962142;28;20325;-66
2022/05/17 06:32:31;;;;;;;;;;;16.10;99.90;;;;;;4963900;28;19935;-66
2022/05/17 06:34:58;;;;;;;;;;;16.20;99.90;;;;;;4957376;28;19930;-68
2022/05/17 06:37:25;;;;;;;;;;;16.10;99.90;;;;;;4964889;28;20393;-68
2022/05/17 06:39:51;;;;;;;;;;;16.10;99.90;;;;;;4964846;28;20637;-65
2022/05/17 06:42:18;;;;;;;;;;;16.10;99.90;;;;;;4963584;28;19937;-67
2022/05/17 06:44:45;;;;;;;;;;;16.10;99.90;;;;;;4962870;28;20108;-65
2022/05/17 06:47:11;;;;;;;;;;;16.10;99.90;;;;;;4964394;28;19926;-66
2022/05/17 06:49:40;;;;;;;;;;;16.20;99.90;;;;;;4962810;28;19926;-66
2022/05/17 06:52:08;;;;;;;;;;;16.20;99.90;;;;;;4960743;28;19937;-68
2022/05/17 06:54:35;;;;;;;;;;;16.20;99.90;;;;;;4964106;28;19934;-66
2022/05/17 06:57:03;;;;;;;;;;;16.20;99.90;;;;;;4960750;28;19938;-66
2022/05/17 06:59:30;;;;;;;;;;;16.30;99.90;;;;;;4966955;28;21907;-67
2022/05/17 07:01:57;;;;;;;;;;;16.40;99.90;;;;;;4964153;28;20355;-67
2022/05/17 07:04:23;;;;;;;;;;;16.50;99.90;;;;;;4958568;28;19938;-67
2022/05/17 07:06:51;;;;;;;;;;;16.70;99.90;;;;;;4960798;28;19926;-66
2022/05/17 07:09:22;;;;;;;;;;;16.90;99.90;;;;;;4963149;28;19934;-66
2022/05/17 07:14:32;;;;;;;;;;;17.10;99.90;;;;;;4958436;28;19999;-66
2022/05/17 07:16:59;;;;;;;;;;;17.30;99.90;;;;;;4968986;28;19981;-66
2022/05/17 07:19:26;;;;;;;;;;;17.50;99.90;;;;;;4967303;28;19926;-66
2022/05/17 07:21:57;;;;;;;;;;;17.60;99.90;;;;;;4963131;28;19926;-66
2022/05/17 07:24:24;;;;;;;;;;;17.70;99.90;;;;;;4964833;28;20436;-66
2022/05/17 07:26:51;;;;;;;;;;;17.80;99.90;;;;;;4961843;28;20385;-66
2022/05/17 07:29:17;;;;;;;;;;;17.80;99.90;;;;;;4959340;28;19926;-66
2022/05/17 07:31:44;;;;;;;;;;;17.90;99.90;;;;;;4962197;28;19926;-67
2022/05/17 07:34:10;;;;;;;;;;;17.90;99.90;;;;;;4964066;28;19926;-67
2022/05/17 07:36:37;;;;;;;;;;;17.90;99.90;;;;;;4962418;28;20017;-67
2022/05/17 07:39:06;;;;;;;;;;;17.60;99.90;;;;;;4962068;28;19934;-67
2022/05/17 07:41:33;;;;;;;;;;;17.60;99.90;;;;;;4963370;28;19926;-66
2022/05/17 07:43:59;;;;;;;;;;;17.80;99.90;;;;;;4963550;28;20401;-66
2022/05/17 07:46:26;;;;;;;;;;;17.90;99.90;;;;;;4964732;28;20463;-66
2022/05/17 07:48:53;;;;;;;;;;;18.20;99.90;;;;;;4964095;28;20745;-67
2022/05/17 07:51:20;;;;;;;;;;;18.30;99.40;;;;;;4964877;28;20020;-67
2022/05/17 07:53:47;;;;;;;;;;;18.30;99.50;;;;;;4959586;28;20381;-67
2022/05/17 07:56:15;;;;;;;;;;;18.80;99.50;;;;;;4957802;28;19926;-67
2022/05/17 07:58:42;;;;;;;;;;;19.20;97.70;;;;;;4970111;28;19980;-67
2022/05/17 08:01:09;;;;;;;;;;;19.60;96.70;;;;;;4957326;28;19926;-67
2022/05/17 08:03:36;;;;;;;;;;;20.00;95.40;;;;;;4961126;28;19935;-67
2022/05/17 08:06:02;;;;;;;;;;;19.70;95.60;;;;;;4961303;28;19927;-67
2022/05/17 08:08:29;;;;;;;;;;;19.90;94.70;;;;;;4962631;28;20687;-67
2022/05/17 08:10:56;;;;;;;;;;;20.40;93.90;;;;;;4962418;28;20009;-67
2022/05/17 08:13:25;;;;;;;;;;;20.80;93.30;;;;;;4965058;28;20033;-67
2022/05/17 08:15:52;;;;;;;;;;;21.20;92.60;;;;;;4962048;28;19969;-68
2022/05/17 08:18:18;;;;;;;;;;;22.10;90.60;;;;;;4965121;28;19936;-67
2022/05/17 08:20:45;;;;;;;;;;;22.30;86.00;;;;;;4964403;28;19934;-67
2022/05/17 08:23:12;;;;;;;;;;;21.90;87.00;;;;;;4959933;28;19926;-68
2022/05/17 08:28:27;;;;;;;;;;;21.20;87.20;;;;;;4958500;28;20013;-74
2022/05/17 08:30:54;;;;;;;;;;;21.50;88.10;;;;;;4963829;28;20059;-74
2022/05/17 08:33:23;;;;;;;;;;;21.40;87.80;;;;;;4959236;28;19926;-73
2022/05/17 08:35:51;;;;;;;;;;;22.20;84.50;;;;;;4965416;28;20005;-73
2022/05/17 08:38:20;;;;;;;;;;;23.40;78.40;;;;;;4966755;28;19926;-73
2022/05/17 08:41:07;;;;;;;;;;;24.30;74.30;;;;;;4967513;28;20426;-74
2022/05/17 08:43:47;;;;;;;;;;;24.50;73.30;;;;;;4967933;28;19965;-73
2022/05/17 08:46:21;;;;;;;;;;;24.50;69.20;;;;;;4963268;28;19930;-73
2022/05/17 08:48:50;;;;;;;;;;;27.20;58.50;;;;;;4967161;28;19926;-73
2022/05/17 08:51:18;;;;;;;;;;;28.70;49.30;;;;;;4967325;28;20373;-75
2022/05/17 08:53:46;;;;;;;;;;;29.10;44.80;;;;;;4960823;28;20309;-73
2022/05/17 08:56:13;;;;;;;;;;;29.20;41.60;;;;;;4967611;28;19926;-74
2022/05/17 08:58:43;;;;;;;;;;;26.30;46.90;;;;;;4964599;28;20336;-73
2022/05/17 09:01:15;;;;;;;;;;;26.00;49.00;;;;;;4966784;28;19933;-74
2022/05/17 09:03:48;;;;;;;;;;;24.50;53.40;;;;;;4964889;28;19934;-74
2022/05/17 09:06:18;;;;;;;;;;;26.20;52.10;;;;;;4962228;28;19934;-75
2022/05/17 09:08:48;;;;;;;;;;;27.10;47.50;;;;;;4961637;28;19926;-72
2022/05/17 09:11:19;;;;;;;;;;;25.20;51.00;;;;;;4961959;28;20033;-73
2022/05/17 09:13:52;;;;;;;;;;;25.50;53.40;;;;;;4959775;28;19934;-72
2022/05/17 09:16:21;;;;;;;;;;;25.50;50.90;;;;;;4963990;28;19926;-71
2022/05/17 09:18:48;;;;;;;;;;;27.10;48.80;;;;;;4964041;28;19965;-72
2022/05/17 09:21:26;;;;;;;;;;;28.50;43.90;;;;;;4961575;28;19934;-73
2022/05/17 09:23:53;;;;;;;;;;;29.10;41.80;;;;;;4958956;28;19926;-72
2022/05/17 09:26:20;;;;;;;;;;;29.90;38.70;;;;;;4964773;28;20017;-73
2022/05/17 09:28:50;;;;;;;;;;;28.40;41.00;;;;;;4958112;28;22249;-73
2022/05/17 09:31:25;;;;;;;;;;;27.30;41.70;;;;;;4961355;28;19937;-72
2022/05/17 09:33:53;;;;;;;;;;;25.50;48.40;;;;;;4959807;28;19934;-73
2022/05/17 09:36:20;;;;;;;;;;;25.40;50.10;;;;;;4958415;28;19945;-73
2022/05/17 09:38:48;;;;;;;;;;;26.30;48.70;;;;;;4962836;28;20278;-72
2022/05/17 09:41:19;;;;;;;;;;;26.40;46.90;;;;;;4963247;28;19926;-73
2022/05/17 09:43:50;;;;;;;;;;;26.70;47.10;;;;;;4960841;28;20527;-73
2022/05/17 09:46:19;;;;;;;;;;;25.50;49.00;;;;;;4960189;28;19933;-72
2022/05/17 09:54:34;;;;;;;;;;;25.30;51.30;;;;;;4962281;28;19933;-73
2022/05/17 09:57:12;;;;;;;;;;;24.20;53.90;;;;;;4961876;28;19926;-73
2022/05/17 09:59:38;;;;;;;;;;;25.40;52.90;;;;;;4964933;28;19991;-73
2022/05/17 10:02:21;;;;;;;;;;;26.10;49.90;;;;;;4964879;28;20032;-73
2022/05/17 10:04:48;;;;;;;;;;;25.50;51.30;;;;;;4963171;28;19930;-72
2022/05/17 10:07:18;;;;;;;;;;;25.00;53.10;;;;;;4963243;28;20025;-72
2022/05/17 10:09:45;;;;;;;;;;;25.30;52.00;;;;;;4966360;28;19926;-73
2022/05/17 10:12:16;;;;;;;;;;;25.40;50.70;;;;;;4965546;28;20001;-73
2022/05/17 10:14:44;;;;;;;;;;;25.80;51.30;;;;;;4962520;28;19952;-72
2022/05/17 10:17:14;;;;;;;;;;;26.40;47.90;;;;;;4965379;28;19930;-73
2022/05/17 10:19:44;;;;;;;;;;;26.40;44.70;;;;;;4964475;28;19926;-72
2022/05/17 10:22:18;;;;;;;;;;;26.60;44.00;;;;;;4964332;28;19981;-71
2022/05/17 10:24:47;;;;;;;;;;;26.80;43.50;;;;;;4970483;28;19934;-72
2022/05/17 10:27:17;;;;;;;;;;;26.70;42.70;;;;;;4967345;28;20415;-72
2022/05/17 10:29:45;;;;;;;;;;;26.80;43.10;;;;;;4965516;28;19926;-70
2022/05/17 10:32:16;;;;;;;;;;;26.90;42.60;;;;;;4969856;28;19926;-70
2022/05/17 10:34:46;;;;;;;;;;;27.00;42.50;;;;;;4968328;28;19926;-70
2022/05/17 10:37:14;;;;;;;;;;;27.00;42.20;;;;;;4985030;28;20538;-71
2022/05/17 10:39:45;;;;;;;;;;;27.10;41.20;;;;;;4966376;28;19932;-71
2022/05/17 10:42:12;;;;;;;;;;;27.40;41.40;;;;;;4966340;28;20026;-71
2022/05/17 10:44:40;;;;;;;;;;;27.30;40.80;;;;;;4966760;28;19933;-71
2022/05/17 10:47:22;;;;;;;;;;;27.20;39.40;;;;;;4962224;28;19937;-70
2022/05/17 10:49:56;;;;;;;;;;;26.70;39.40;;;;;;4957294;28;19977;-70
2022/05/17 10:52:27;;;;;;;;;;;26.80;39.60;;;;;;4958521;28;19932;-71
2022/05/17 10:55:00;;;;;;;;;;;27.00;39.50;;;;;;4963554;28;19973;-70
2022/05/17 10:57:31;;;;;;;;;;;26.70;39.50;;;;;;4963930;28;19926;-74
2022/05/17 11:00:02;;;;;;;;;;;26.80;38.50;;;;;;4961911;28;19934;-71
2022/05/17 11:02:36;;;;;;;;;;;27.20;38.00;;;;;;4963225;28;20293;-71
2022/05/17 11:05:12;;;;;;;;;;;27.40;36.90;;;;;;4961310;28;20010;-71
2022/05/17 11:07:54;;;;;;;;;;;27.70;36.00;;;;;;4959774;28;19926;-71
2022/05/17 11:10:26;;;;;;;;;;;27.70;46.30;;;;;;4959424;28;19933;-72
2022/05/17 11:12:56;;;;;;;;;;;27.50;46.00;;;;;;4962159;28;19926;-71
2022/05/17 11:15:24;;;;;;;;;;;27.50;47.20;;;;;;4965361;28;20086;-72
2022/05/17 11:17:55;;;;;;;;;;;27.50;46.20;;;;;;4958995;28;19949;-73
2022/05/17 11:20:24;;;;;;;;;;;27.60;46.00;;;;;;4964539;28;19934;-71
2022/05/17 11:22:55;;;;;;;;;;;27.70;45.80;;;;;;4965901;28;19932;-71
2022/05/17 11:25:43;;;;;;;;;;;28.10;44.40;;;;;;4966290;28;20320;-72
2022/05/17 11:28:30;;;;;;;;;;;28.30;40.80;;;;;;4966594;28;19974;-73
2022/05/17 11:31:00;;;;;;;;;;;28.00;41.40;;;;;;4966589;28;19933;-72
2022/05/17 11:33:38;;;;;;;;;;;28.00;38.30;;;;;;4964658;28;20297;-73
2022/05/17 11:36:06;;;;;;;;;;;27.90;37.80;;;;;;4962492;28;20021;-73
2022/05/17 11:38:44;;;;;;;;;;;28.00;41.00;;;;;;4962518;28;19934;-73
2022/05/17 11:41:16;;;;;;;;;;;28.00;40.10;;;;;;4964973;28;20013;-73
2022/05/17 11:43:47;;;;;;;;;;;27.90;41.80;;;;;;4968332;28;20359;-73
2022/05/17 11:46:33;;;;;;;;;;;27.90;41.90;;;;;;4963896;28;19930;-73
2022/05/17 11:49:01;;;;;;;;;;;27.90;24.40;;;;;;4964117;28;19930;-72
2022/05/17 11:51:30;;;;;;;;;;;27.90;21.50;;;;;;4965350;28;19933;-72
2022/05/17 11:53:57;;;;;;;;;;;28.10;20.60;;;;;;4966159;28;20392;-72
2022/05/17 11:56:34;;;;;;;;;;;27.90;20.30;;;;;;4967833;28;20365;-72
2022/05/17 11:59:01;;;;;;;;;;;27.80;20.80;;;;;;4964119;28;19936;-72
2022/05/17 12:01:45;;;;;;;;;;;27.80;20.10;;;;;;4966389;28;19935;-72
2022/05/17 12:04:36;;;;;;;;;;;27.90;20.80;;;;;;4964483;28;20321;-70
2022/05/17 12:07:17;;;;;;;;;;;28.10;19.70;;;;;;4968158;28;19933;-71
2022/05/17 12:09:49;;;;;;;;;;;28.10;19.60;;;;;;4961031;28;20469;-70
2022/05/17 12:12:29;;;;;;;;;;;28.10;18.30;;;;;;4967275;28;19933;-70
2022/05/17 12:15:04;;;;;;;;;;;28.10;18.50;;;;;;4962707;28;19945;-68
2022/05/17 12:17:34;;;;;;;;;;;28.40;18.20;;;;;;4964269;28;19934;-68
2022/05/17 12:20:05;;;;;;;;;;;28.30;17.40;;;;;;4960463;28;20012;-69
2022/05/17 12:22:34;;;;;;;;;;;28.00;16.80;;;;;;4970212;28;19927;-68
2022/05/17 12:25:07;;;;;;;;;;;27.80;16.60;;;;;;4959252;28;19934;-69
2022/05/17 12:27:35;;;;;;;;;;;27.90;16.50;;;;;;4964190;28;19930;-69
2022/05/17 12:32:50;;;;;;;;;;;28.30;14.90;;;;;;4965373;28;20572;-69
2022/05/17 12:35:23;;;;;;;;;;;28.30;15.00;;;;;;4960845;28;19956;-69
2022/05/17 12:37:49;;;;;;;;;;;28.20;14.60;;;;;;4965022;28;19972;-68
2022/05/17 12:43:07;;;;;;;;;;;28.10;15.60;;;;;;4968853;28;20289;-69
2022/05/17 12:45:37;;;;;;;;;;;28.20;16.60;;;;;;4967787;28;19926;-69
2022/05/17 12:48:12;;;;;;;;;;;28.10;16.10;;;;;;4964295;28;19930;-67
2022/05/17 12:50:40;;;;;;;;;;;28.50;16.20;;;;;;4965602;28;19934;-67
2022/05/17 12:53:11;;;;;;;;;;;28.20;15.90;;;;;;4965387;28;19930;-66
2022/05/17 12:55:42;;;;;;;;;;;28.00;18.40;;;;;;4960793;28;19926;-67
2022/05/17 12:58:10;;;;;;;;;;;28.10;22.30;;;;;;4964620;28;19926;-64
2022/05/17 13:00:39;;;;;;;;;;;28.40;24.50;;;;;;4964001;28;19926;-67
2022/05/17 13:03:15;;;;;;;;;;;28.30;23.40;;;;;;4961244;28;20623;-66
2022/05/17 13:05:43;;;;;;;;;;;28.10;23.10;;;;;;4961562;28;19932;-65
2022/05/17 13:08:12;;;;;;;;;;;27.30;21.50;;;;;;4961345;28;20394;-66
2022/05/17 13:10:41;;;;;;;;;;;28.10;23.20;;;;;;4959448;28;19934;-66
2022/05/17 13:13:15;;;;;;;;;;;28.30;28.30;;;;;;4957859;28;19934;-68
2022/05/17 13:15:44;;;;;;;;;;;28.70;15.50;;;;;;4963085;28;19978;-66
2022/05/17 13:18:12;;;;;;;;;;;28.90;16.00;;;;;;4963712;28;19930;-66
2022/05/17 13:20:39;;;;;;;;;;;29.00;13.30;;;;;;4961943;28;20017;-66
2022/05/17 13:23:07;;;;;;;;;;;28.90;12.20;;;;;;4957949;28;19933;-67
2022/05/17 13:25:36;;;;;;;;;;;29.40;8.80;;;;;;4960643;28;19926;-66
2022/05/17 13:28:05;;;;;;;;;;;28.90;10.00;;;;;;4964885;28;19926;-68
2022/05/17 13:30:33;;;;;;;;;;;29.00;13.70;;;;;;4953839;28;19934;-67
2022/05/17 13:33:01;;;;;;;;;;;29.10;15.00;;;;;;4959085;28;19934;-67
2022/05/17 13:35:29;;;;;;;;;;;28.90;12.60;;;;;;4959669;28;20356;-67
2022/05/17 13:37:57;;;;;;;;;;;28.70;12.50;;;;;;4964004;28;20025;-67
2022/05/17 13:40:35;;;;;;;;;;;28.80;13.50;;;;;;4963495;28;19926;-67
2022/05/17 13:43:01;;;;;;;;;;;29.00;9.60;;;;;;4965004;28;19930;-67
2022/05/17 13:45:32;;;;;;;;;;;28.80;10.50;;;;;;4963279;28;19934;-67
2022/05/17 13:47:58;;;;;;;;;;;28.60;11.10;;;;;;4965417;28;19995;-67
2022/05/17 13:50:27;;;;;;;;;;;28.60;11.40;;;;;;4965350;28;19948;-66
2022/05/17 13:52:56;;;;;;;;;;;28.60;10.80;;;;;;4966061;28;20381;-66
2022/05/17 13:55:27;;;;;;;;;;;28.60;11.50;;;;;;4960693;28;20079;-66
2022/05/17 13:57:55;;;;;;;;;;;28.70;11.80;;;;;;4966049;28;20315;-67
2022/05/17 14:00:23;;;;;;;;;;;29.00;11.70;;;;;;4966574;28;19930;-66
2022/05/17 14:02:57;;;;;;;;;;;29.20;13.10;;;;;;4965420;28;19940;-66
2022/05/17 14:05:26;;;;;;;;;;;29.00;11.30;;;;;;4962658;28;20028;-65
2022/05/17 14:07:54;;;;;;;;;;;28.70;10.80;;;;;;4966756;28;20021;-66
2022/05/17 14:13:09;;;;;;;;;;;29.00;8.60;;;;;;4965399;28;19933;-66
2022/05/17 14:15:36;;;;;;;;;;;28.80;9.30;;;;;;4967019;28;19926;-66
2022/05/17 14:18:05;;;;;;;;;;;28.90;9.80;;;;;;4964556;28;19934;-65
2022/05/17 14:20:32;;;;;;;;;;;28.70;8.40;;;;;;4964078;28;20266;-65
2022/05/17 14:23:00;;;;;;;;;;;28.70;7.60;;;;;;4964883;28;19948;-65
2022/05/17 14:25:27;;;;;;;;;;;28.80;8.60;;;;;;4965001;28;19926;-65
2022/05/17 14:27:55;;;;;;;;;;;28.70;8.30;;;;;;4967187;28;19926;-66
2022/05/17 14:30:22;;;;;;;;;;;28.60;6.80;;;;;;4959359;28;20517;-66
2022/05/17 14:32:49;;;;;;;;;;;28.40;8.20;;;;;;4964390;28;20564;-66
2022/05/17 14:35:18;;;;;;;;;;;28.20;9.60;;;;;;4964260;28;19991;-66
2022/05/17 14:37:46;;;;;;;;;;;28.00;10.30;;;;;;4967295;28;20028;-66
2022/05/17 14:40:13;;;;;;;;;;;28.00;10.10;;;;;;4968715;28;20021;-67
2022/05/17 14:42:44;;;;;;;;;;;28.10;10.30;;;;;;4967774;28;20225;-65
2022/05/17 14:45:15;;;;;;;;;;;28.10;8.40;;;;;;4968151;28;19930;-68
2022/05/17 14:47:47;;;;;;;;;;;28.00;8.60;;;;;;4967149;28;19942;-67
2022/05/17 14:50:15;;;;;;;;;;;28.10;8.20;;;;;;4973740;28;19958;-67